createdAt,value
2022-07-28T00:00:30.059Z,100072.69
2022-07-28T00:03:42.588Z,100076.38
2022-07-28T00:06:44.787Z,100079.19
2022-07-28T00:09:47.449Z,100073.81
2022-07-28T00:12:49.630Z,100071.13
2022-07-28T00:15:52.366Z,100079.22
2022-07-28T00:18:54.565Z,100072.06
2022-07-28T00:21:57.361Z,100070.31
2022-07-28T00:24:59.561Z,100073.69
2022-07-28T00:28:02.427Z,100073.03
2022-07-28T00:31:07.198Z,100077.66
2022-07-28T00:34:13.113Z,100065.97
2022-07-28T00:37:15.507Z,100069.84
2022-07-28T00:40:18.257Z,100060.19
2022-07-28T00:43:20.599Z,100055.88
2022-07-28T00:46:24.215Z,100057.53
2022-07-28T00:49:26.699Z,100049.44
2022-07-28T00:52:29.917Z,100040.25
2022-07-28T00:55:32.309Z,100051.97
2022-07-28T00:58:54.999Z,100052.16
2022-07-28T01:01:57.562Z,100061.13
2022-07-28T01:05:00.410Z,100049.03
2022-07-28T01:08:06.086Z,100053.34
2022-07-28T01:11:14.715Z,100055.16
2022-07-28T01:14:23.069Z,100052.72
2022-07-28T01:17:48.126Z,100051.78
2022-07-28T01:20:53.607Z,100056.56
2022-07-28T01:23:56.480Z,100053.87
2022-07-28T01:27:06.059Z,100051.22
2022-07-28T01:30:27.947Z,100055.53
2022-07-28T01:33:46.164Z,100055.00
2022-07-28T01:37:01.057Z,100050.03
2022-07-28T01:40:05.208Z,100048.28
2022-07-28T01:43:13.466Z,100051.69
2022-07-28T01:46:16.532Z,100051.06
2022-07-28T01:49:21.307Z,100047.66
2022-07-28T01:52:23.931Z,100054.78
2022-07-28T01:55:27.902Z,100052.00
2022-07-28T01:58:30.625Z,100054.63
2022-07-28T02:01:36.635Z,100047.59
2022-07-28T02:04:40.569Z,100046.00
2022-07-28T02:07:44.720Z,100050.44
2022-07-28T02:11:09.838Z,100045.06
2022-07-28T02:14:23.265Z,100048.53
2022-07-28T02:17:28.011Z,100040.66
2022-07-28T02:20:30.748Z,100038.91
2022-07-28T02:23:34.239Z,100036.06
2022-07-28T02:26:38.036Z,100037.00
2022-07-28T02:29:51.046Z,100036.16
2022-07-28T02:32:55.554Z,100046.00
2022-07-28T02:36:16.147Z,100038.97
2022-07-28T02:39:23.162Z,100045.13
2022-07-28T02:42:28.379Z,100050.50
2022-07-28T02:45:31.680Z,100053.94
2022-07-28T02:48:36.990Z,100061.00
2022-07-28T02:51:40.682Z,100057.56
2022-07-28T02:54:44.048Z,100057.78
2022-07-28T02:57:47.788Z,100063.06
2022-07-28T03:00:51.055Z,100065.59
2022-07-28T03:03:55.560Z,100068.34
2022-07-28T03:06:58.155Z,100068.34
2022-07-28T03:10:00.853Z,100076.28
2022-07-28T03:13:05.364Z,100072.72
2022-07-28T03:16:08.096Z,100076.16
2022-07-28T03:19:11.599Z,100070.81
2022-07-28T03:22:14.223Z,100075.09
2022-07-28T03:25:23.279Z,100071.47
2022-07-28T03:28:27.187Z,100072.25
2022-07-28T03:31:31.707Z,100073.81
2022-07-28T03:34:34.552Z,100087.16
2022-07-28T03:37:41.728Z,100084.72
2022-07-28T03:40:46.275Z,100088.37
2022-07-28T03:43:50.443Z,100083.88
2022-07-28T03:46:52.977Z,100086.53
2022-07-28T03:49:55.433Z,100089.97
2022-07-28T03:52:59.162Z,100092.53
2022-07-28T03:56:03.322Z,100101.37
2022-07-28T03:59:06.362Z,100109.22
2022-07-28T04:02:09.121Z,100109.97
2022-07-28T04:05:13.105Z,100115.16
2022-07-28T04:08:15.396Z,100108.75
2022-07-28T04:11:18.195Z,100106.66
2022-07-28T04:14:20.774Z,100120.88
2022-07-28T04:17:23.636Z,100119.09
2022-07-28T04:20:27.095Z,100116.38
2022-07-28T04:23:30.973Z,100119.75
2022-07-28T04:26:33.237Z,100112.75
2022-07-28T04:29:35.980Z,100116.34
2022-07-28T04:32:38.616Z,100124.25
2022-07-28T04:35:41.981Z,100116.94
2022-07-28T04:38:44.374Z,100120.41
2022-07-28T04:41:47.072Z,100119.34
2022-07-28T04:44:49.359Z,100127.25
2022-07-28T04:47:53.248Z,100124.56
2022-07-28T04:50:55.540Z,100126.38
2022-07-28T04:53:58.312Z,100126.59
2022-07-28T04:57:00.630Z,100128.13
2022-07-28T05:00:13.249Z,100121.03
2022-07-28T05:03:15.521Z,100133.41
2022-07-28T05:06:18.713Z,100127.84
2022-07-28T05:09:21.403Z,100132.13
2022-07-28T05:12:24.287Z,100133.62
2022-07-28T05:15:26.661Z,100133.44
2022-07-28T05:18:29.544Z,100142.28
2022-07-28T05:21:31.868Z,100153.88
2022-07-28T05:24:34.699Z,100141.78
2022-07-28T05:27:37.264Z,100148.53
2022-07-28T05:30:40.036Z,100146.59
2022-07-28T05:33:42.217Z,100148.13
2022-07-28T05:36:44.889Z,100161.88
2022-07-28T05:39:47.129Z,100155.56
2022-07-28T05:42:49.828Z,100166.91
2022-07-28T05:45:52.285Z,100166.78
2022-07-28T05:48:55.185Z,100161.81
2022-07-28T05:51:57.488Z,100173.53
2022-07-28T05:55:00.199Z,100169.75
2022-07-28T05:58:02.635Z,100181.78
2022-07-28T06:01:05.416Z,100174.66
2022-07-28T06:04:25.877Z,100180.72
2022-07-28T06:07:43.440Z,100180.44
2022-07-28T06:10:59.025Z,100184.38
2022-07-28T06:14:01.579Z,100184.06
2022-07-28T06:17:04.268Z,100190.38
2022-07-28T06:20:07.222Z,100192.59
2022-07-28T06:23:09.813Z,100199.09
2022-07-28T06:26:12.238Z,100198.94
2022-07-28T06:29:14.811Z,100190.53
2022-07-28T06:32:17.244Z,100195.16
2022-07-28T06:35:19.839Z,100199.87
2022-07-28T06:38:22.261Z,100203.03
2022-07-28T06:41:24.754Z,100208.91
2022-07-28T06:44:48.270Z,100203.69
2022-07-28T06:47:50.421Z,100207.50
2022-07-28T06:50:52.892Z,100213.13
2022-07-28T06:53:56.008Z,100212.50
2022-07-28T06:56:58.971Z,100219.91
2022-07-28T07:00:04.799Z,100211.66
2022-07-28T07:03:09.824Z,100209.34
2022-07-28T07:06:12.655Z,100213.34
2022-07-28T07:09:15.077Z,100209.59
2022-07-28T07:12:17.682Z,100217.88
2022-07-28T07:15:20.094Z,100219.75
2022-07-28T07:18:22.589Z,100216.28
2022-07-28T07:21:25.037Z,100223.87
2022-07-28T07:24:28.779Z,100219.81
2022-07-28T07:27:31.215Z,100219.00
2022-07-28T07:30:33.777Z,100223.28
2022-07-28T07:33:36.280Z,100218.59
2022-07-28T07:36:38.768Z,100222.94
2022-07-28T07:39:41.582Z,100222.22
2022-07-28T07:42:44.446Z,100215.59
2022-07-28T07:45:46.865Z,100218.69
2022-07-28T07:48:49.464Z,100219.69
2022-07-28T07:51:51.933Z,100218.81
2022-07-28T07:54:54.669Z,100211.38
2022-07-28T07:57:57.305Z,100205.63
2022-07-28T08:00:59.977Z,100213.00
2022-07-28T08:04:03.169Z,100213.47
2022-07-28T08:07:05.869Z,100211.19
2022-07-28T08:10:08.920Z,100213.87
2022-07-28T08:13:11.179Z,100212.38
2022-07-28T08:16:14.017Z,100208.91
2022-07-28T08:19:16.666Z,100210.66
2022-07-28T08:22:24.672Z,100211.94
2022-07-28T08:25:27.238Z,100213.78
2022-07-28T08:28:29.952Z,100213.56
2022-07-28T08:31:32.339Z,100210.91
2022-07-28T08:34:38.374Z,100210.88
2022-07-28T08:37:40.881Z,100212.09
2022-07-28T08:40:46.090Z,100214.25
2022-07-28T08:43:49.894Z,100209.84
2022-07-28T08:46:53.327Z,100205.47
2022-07-28T08:49:57.133Z,100204.31
2022-07-28T08:53:00.367Z,100204.16
2022-07-28T08:56:06.834Z,100203.97
2022-07-28T08:59:09.605Z,100206.44
2022-07-28T09:02:12.890Z,100203.53
2022-07-28T09:05:16.046Z,100200.78
2022-07-28T09:08:19.452Z,100202.00
2022-07-28T09:11:22.162Z,100197.78
2022-07-28T09:14:25.099Z,100198.88
2022-07-28T09:17:28.364Z,100193.50
2022-07-28T09:20:31.973Z,100193.53
2022-07-28T09:24:01.481Z,100190.66
2022-07-28T09:27:08.042Z,100190.09
2022-07-28T09:30:11.055Z,100182.94
2022-07-28T09:33:41.956Z,100187.16
2022-07-28T09:36:39.958Z,100181.16
2022-07-28T09:39:43.171Z,100177.38
2022-07-28T09:42:46.911Z,100182.84
2022-07-28T09:46:02.619Z,100172.72
2022-07-28T09:49:05.494Z,100174.66
2022-07-28T09:52:07.924Z,100163.56
2022-07-28T09:55:11.524Z,100166.59
2022-07-28T09:58:13.838Z,100158.34
2022-07-28T10:01:18.791Z,100157.62
2022-07-28T10:04:33.754Z,100160.19
2022-07-28T10:07:47.833Z,100157.62
2022-07-28T10:11:00.751Z,100161.81
2022-07-28T10:14:05.018Z,100155.03
2022-07-28T10:17:07.652Z,100155.78
2022-07-28T10:20:10.276Z,100155.50
2022-07-28T10:23:13.367Z,100147.19
2022-07-28T10:26:16.309Z,100136.72
2022-07-28T10:29:21.011Z,100133.00
2022-07-28T10:32:23.448Z,100137.41
2022-07-28T10:35:26.747Z,100126.38
2022-07-28T10:38:35.206Z,100127.19
2022-07-28T10:41:41.711Z,100124.69
2022-07-28T10:44:45.366Z,100130.25
2022-07-28T10:47:48.376Z,100127.22
2022-07-28T10:50:52.043Z,100118.44
2022-07-28T10:54:01.182Z,100124.06
2022-07-28T10:57:05.171Z,100113.66
2022-07-28T11:00:24.721Z,100114.28
2022-07-28T11:03:38.425Z,100115.66
2022-07-28T11:06:42.409Z,100105.91
2022-07-28T11:09:47.431Z,100099.34
2022-07-28T11:12:51.407Z,100096.41
2022-07-28T11:15:54.504Z,100092.19
2022-07-28T11:19:42.374Z,100090.53
2022-07-28T11:22:33.923Z,100082.03
2022-07-28T11:25:37.184Z,100091.09
2022-07-28T11:28:57.681Z,100088.22
2022-07-28T11:32:00.845Z,100081.47
2022-07-28T11:35:08.179Z,100085.56
2022-07-28T11:38:14.482Z,100090.25
2022-07-28T11:41:32.274Z,100084.91
2022-07-28T11:44:36.849Z,100079.66
2022-07-28T11:47:39.296Z,100080.84
2022-07-28T11:50:42.232Z,100085.28
2022-07-28T11:53:52.489Z,100085.97
2022-07-28T11:56:58.704Z,100084.84
2022-07-28T12:00:01.987Z,100072.91
2022-07-28T12:03:08.163Z,100074.19
2022-07-28T12:06:11.607Z,100064.63
2022-07-28T12:09:23.314Z,100066.53
2022-07-28T12:12:28.663Z,100061.13
2022-07-28T12:15:31.224Z,100059.41
2022-07-28T12:18:34.059Z,100060.72
2022-07-28T12:21:46.402Z,100058.22
2022-07-28T12:24:56.559Z,100058.38
2022-07-28T12:28:12.639Z,100061.44
2022-07-28T12:31:15.761Z,100053.47
2022-07-28T12:34:18.942Z,100050.37
2022-07-28T12:37:23.582Z,100053.78
2022-07-28T12:40:29.224Z,100045.22
2022-07-28T12:43:32.164Z,100049.69
2022-07-28T12:46:34.829Z,100046.91
2022-07-28T12:49:38.697Z,100046.31
2022-07-28T12:52:44.490Z,100041.88
2022-07-28T12:55:47.341Z,100044.72
2022-07-28T12:58:56.504Z,100045.44
2022-07-28T13:02:00.477Z,100041.22
2022-07-28T13:05:03.087Z,100038.97
2022-07-28T13:08:06.329Z,100035.34
2022-07-28T13:11:17.393Z,100034.94
2022-07-28T13:14:41.399Z,100032.00
2022-07-28T13:17:50.676Z,100028.22
2022-07-28T13:20:54.158Z,100023.41
2022-07-28T13:23:56.406Z,100024.19
2022-07-28T13:26:59.642Z,100023.63
2022-07-28T13:30:02.328Z,100026.47
2022-07-28T13:33:09.348Z,100023.37
2022-07-28T13:36:14.855Z,100023.59
2022-07-28T13:39:17.603Z,100023.37
2022-07-28T13:42:19.851Z,100024.94
2022-07-28T13:45:23.817Z,100014.72
2022-07-28T13:48:26.268Z,100015.91
2022-07-28T13:51:30.461Z,100003.00
2022-07-28T13:54:37.296Z,100003.28
2022-07-28T13:57:43.207Z,99999.69
2022-07-28T14:00:45.685Z,100006.37
2022-07-28T14:03:58.006Z,100004.84
2022-07-28T14:07:00.630Z,100011.00
2022-07-28T14:10:03.839Z,99999.00
2022-07-28T14:13:09.429Z,99995.91
2022-07-28T14:16:14.370Z,99998.50
2022-07-28T14:19:23.426Z,99998.91
2022-07-28T14:22:40.465Z,99988.78
2022-07-28T14:25:49.269Z,99990.75
2022-07-28T14:28:53.075Z,99997.22
2022-07-28T14:31:55.916Z,99993.53
2022-07-28T14:34:58.927Z,100000.78
2022-07-28T14:38:49.757Z,99995.03
2022-07-28T14:41:25.841Z,99990.41
2022-07-28T14:44:28.134Z,99988.16
2022-07-28T14:47:44.574Z,99985.25
2022-07-28T14:50:48.438Z,99986.94
2022-07-28T14:53:52.133Z,99990.72
2022-07-28T14:56:54.860Z,99984.66
2022-07-28T14:59:57.606Z,99988.84
2022-07-28T15:02:59.950Z,99981.19
2022-07-28T15:06:05.265Z,99982.94
2022-07-28T15:09:09.463Z,99969.19
2022-07-28T15:12:12.271Z,99967.75
2022-07-28T15:15:15.864Z,99971.03
2022-07-28T15:18:18.636Z,99965.34
2022-07-28T15:21:21.052Z,99965.22
2022-07-28T15:24:27.191Z,99964.94
2022-07-28T15:27:33.143Z,99970.94
2022-07-28T15:30:36.401Z,99960.22
2022-07-28T15:33:57.468Z,99967.47
2022-07-28T15:37:01.093Z,99969.63
2022-07-28T15:40:03.730Z,99962.75
2022-07-28T15:43:06.510Z,99969.03
2022-07-28T15:46:11.005Z,99966.16
2022-07-28T15:49:14.181Z,99962.78
2022-07-28T15:52:16.532Z,99957.72
2022-07-28T15:55:20.501Z,99962.97
2022-07-28T15:58:22.702Z,99949.03
2022-07-28T16:01:29.919Z,99955.87
2022-07-28T16:04:33.702Z,99962.25
2022-07-28T16:07:36.218Z,99966.44
2022-07-28T16:10:38.754Z,99964.25
2022-07-28T16:13:41.666Z,99960.25
2022-07-28T16:16:44.630Z,99951.91
2022-07-28T16:19:49.667Z,99957.66
2022-07-28T16:22:52.645Z,99965.72
2022-07-28T16:25:55.354Z,99963.75
2022-07-28T16:28:57.904Z,99964.16
2022-07-28T16:32:00.316Z,99970.09
2022-07-28T16:35:03.255Z,99965.41
2022-07-28T16:38:06.098Z,99972.69
2022-07-28T16:41:10.408Z,99964.91
2022-07-28T16:44:14.716Z,99968.88
2022-07-28T16:47:18.095Z,99967.25
2022-07-28T16:50:22.727Z,99967.31
2022-07-28T16:53:25.677Z,99971.06
2022-07-28T16:56:28.106Z,99971.50
2022-07-28T16:59:37.958Z,99977.34
2022-07-28T17:02:51.614Z,99969.59
2022-07-28T17:05:54.283Z,99973.50
2022-07-28T17:08:56.865Z,99966.66
2022-07-28T17:11:59.346Z,99970.44
2022-07-28T17:15:01.950Z,99969.84
2022-07-28T17:18:05.834Z,99985.47
2022-07-28T17:21:08.269Z,99980.41
2022-07-28T17:24:12.233Z,99972.75
2022-07-28T17:30:37.715Z,99977.72
2022-07-28T17:33:40.212Z,99974.56
2022-07-28T17:36:45.352Z,99985.63
2022-07-28T17:39:47.737Z,99976.06
2022-07-28T17:42:51.780Z,99982.66
2022-07-28T17:45:57.326Z,99976.53
2022-07-28T17:48:59.900Z,99982.25
2022-07-28T17:52:03.628Z,99979.00
2022-07-28T17:55:24.973Z,99989.22
2022-07-28T17:58:32.225Z,99983.16
2022-07-28T18:01:35.209Z,99982.59
2022-07-28T18:04:38.269Z,99985.59
2022-07-28T18:07:50.951Z,99983.19
2022-07-28T18:10:55.011Z,99979.00
2022-07-28T18:14:04.295Z,99984.75
2022-07-28T18:17:07.889Z,99989.50
2022-07-28T18:20:10.483Z,99982.59
2022-07-28T18:23:13.836Z,99985.44
2022-07-28T18:26:16.206Z,99989.25
2022-07-28T18:29:20.391Z,99994.91
2022-07-28T18:32:23.486Z,99994.06
2022-07-28T18:35:26.307Z,100003.34
2022-07-28T18:38:28.798Z,100009.03
2022-07-28T18:41:34.553Z,100017.38
2022-07-28T18:44:49.115Z,100007.72
2022-07-28T18:47:53.213Z,100017.66
2022-07-28T18:50:55.493Z,100016.06
2022-07-28T18:53:58.177Z,100026.97
2022-07-28T18:57:00.397Z,100032.53
2022-07-28T19:00:04.499Z,100029.72
2022-07-28T19:03:06.862Z,100038.78
2022-07-28T19:06:10.426Z,100041.25
2022-07-28T19:09:12.673Z,100039.78
2022-07-28T19:12:15.401Z,100044.41
2022-07-28T19:15:17.717Z,100048.19
2022-07-28T19:18:20.632Z,100051.06
2022-07-28T19:21:24.323Z,100053.63
2022-07-28T19:24:27.128Z,100055.09
2022-07-28T19:27:30.796Z,100053.56
2022-07-28T19:30:33.821Z,100054.63
2022-07-28T19:33:36.704Z,100049.53
2022-07-28T19:36:41.677Z,100056.84
2022-07-28T19:39:45.988Z,100062.34
2022-07-28T19:42:48.982Z,100066.16
2022-07-28T19:45:57.347Z,100062.78
2022-07-28T19:49:00.245Z,100064.75
2022-07-28T19:52:02.531Z,100068.53
2022-07-28T19:55:06.246Z,100074.00
2022-07-28T19:58:08.469Z,100073.19
2022-07-28T20:01:11.213Z,100071.63
2022-07-28T20:04:15.830Z,100078.03
2022-07-28T20:07:18.854Z,100080.94
2022-07-28T20:10:22.184Z,100082.13
2022-07-28T20:13:24.863Z,100082.25
2022-07-28T20:16:27.929Z,100092.28
2022-07-28T20:19:30.437Z,100088.06
2022-07-28T20:22:33.064Z,100095.38
2022-07-28T20:25:35.547Z,100096.38
2022-07-28T20:28:38.189Z,100086.81
2022-07-28T20:31:40.611Z,100087.97
2022-07-28T20:34:43.641Z,100087.38
2022-07-28T20:37:46.307Z,100097.41
2022-07-28T20:40:49.241Z,100093.16
2022-07-28T20:44:11.360Z,100099.66
2022-07-28T20:47:14.352Z,100103.44
2022-07-28T20:50:17.007Z,100100.94
2022-07-28T20:53:19.568Z,100105.47
2022-07-28T20:56:22.061Z,100111.75
2022-07-28T20:59:27.726Z,100113.66
2022-07-28T21:02:30.952Z,100111.94
2022-07-28T21:05:35.426Z,100113.03
2022-07-28T21:08:38.816Z,100117.56
2022-07-28T21:11:42.075Z,100115.03
2022-07-28T21:14:44.496Z,100106.22
2022-07-28T21:17:47.893Z,100107.19
2022-07-28T21:20:50.526Z,100109.06
2022-07-28T21:23:53.047Z,100112.69
2022-07-28T21:26:55.576Z,100118.13
2022-07-28T21:32:59.735Z,100126.31
2022-07-28T21:36:03.286Z,100126.38
2022-07-28T21:39:06.346Z,100136.16
2022-07-28T21:42:09.553Z,100136.22
2022-07-28T21:45:12.138Z,100140.81
2022-07-28T21:48:16.879Z,100133.69
2022-07-28T21:51:21.734Z,100140.84
2022-07-28T21:54:24.251Z,100141.78
2022-07-28T21:57:26.709Z,100147.22
2022-07-28T22:00:29.394Z,100150.91
2022-07-28T22:03:32.096Z,100157.22
2022-07-28T22:06:34.351Z,100164.44
2022-07-28T22:09:38.086Z,100174.22
2022-07-28T22:12:40.517Z,100176.78
2022-07-28T22:15:43.155Z,100174.88
2022-07-28T22:18:45.468Z,100169.63
2022-07-28T22:21:48.198Z,100167.34
2022-07-28T22:24:50.452Z,100170.97
2022-07-28T22:27:53.204Z,100170.66
2022-07-28T22:30:55.398Z,100174.38
2022-07-28T22:33:58.113Z,100170.06
2022-07-28T22:37:11.138Z,100175.87
2022-07-28T22:40:18.860Z,100179.66
2022-07-28T22:43:21.039Z,100178.88
2022-07-28T22:46:23.773Z,100175.06
2022-07-28T22:49:26.767Z,100185.00
2022-07-28T22:52:29.954Z,100177.94
2022-07-28T22:58:53.425Z,100177.47
2022-07-28T23:01:55.692Z,100177.97
2022-07-28T23:04:58.483Z,100179.75
2022-07-28T23:08:00.773Z,100175.31
2022-07-28T23:11:04.882Z,100178.16
2022-07-28T23:14:07.216Z,100178.59
2022-07-28T23:17:10.103Z,100170.34
2022-07-28T23:20:12.609Z,100176.88
2022-07-28T23:23:18.419Z,100175.97
2022-07-28T23:26:20.828Z,100180.41
2022-07-28T23:29:23.657Z,100177.91
2022-07-28T23:32:25.984Z,100176.50
2022-07-28T23:35:28.944Z,100180.06
2022-07-28T23:38:31.232Z,100182.06
2022-07-28T23:41:34.263Z,100182.06
2022-07-28T23:44:36.871Z,100181.81
2022-07-28T23:47:39.691Z,100192.87
2022-07-28T23:50:42.230Z,100193.69
2022-07-28T23:53:45.027Z,100192.87
2022-07-28T23:56:50.843Z,100193.91
2022-07-28T23:59:53.689Z,100189.66
